createdAt,value
2018-03-06T00:00:22.789Z,37.90
2018-03-06T00:02:53.523Z,33.27
2018-03-06T00:05:23.232Z,33.13
2018-03-06T00:07:52.910Z,31.27
2018-03-06T00:10:23.470Z,35.03
2018-03-06T00:12:53.182Z,34.03
2018-03-06T00:15:22.893Z,32.83
2018-03-06T00:17:52.804Z,34.60
2018-03-06T00:20:23.763Z,31.50
2018-03-06T00:22:53.657Z,31.07
2018-03-06T00:25:23.980Z,31.63
2018-03-06T00:27:53.855Z,32.00
2018-03-06T00:30:24.425Z,26.40
2018-03-06T00:32:54.339Z,29.07
2018-03-06T00:35:24.048Z,29.30
2018-03-06T00:37:53.758Z,28.83
2018-03-06T00:40:24.963Z,31.30
2018-03-06T00:42:54.814Z,24.77
2018-03-06T00:45:24.528Z,31.10
2018-03-06T00:47:54.180Z,32.20
2018-03-06T00:50:23.949Z,25.60
2018-03-06T00:52:53.857Z,28.07
2018-03-06T00:55:23.567Z,27.00
2018-03-06T00:57:53.483Z,30.00
2018-03-06T01:00:23.192Z,26.10
2018-03-06T01:02:52.901Z,29.30
2018-03-06T01:05:23.224Z,27.23
2018-03-06T01:07:53.139Z,26.97
2018-03-06T01:10:22.848Z,28.60
2018-03-06T01:12:53.376Z,28.57
2018-03-06T01:15:23.087Z,30.40
2018-03-06T01:17:52.797Z,31.57
2018-03-06T01:20:24.565Z,31.73
2018-03-06T01:22:54.263Z,32.07
2018-03-06T01:25:24.177Z,33.20
2018-03-06T01:27:54.251Z,29.70
2018-03-06T01:30:24.011Z,31.10
2018-03-06T01:32:53.920Z,30.10
2018-03-06T01:35:23.846Z,31.33
2018-03-06T01:37:53.544Z,29.67
2018-03-06T01:40:24.078Z,32.57
2018-03-06T01:42:54.603Z,30.43
2018-03-06T01:45:24.311Z,32.83
2018-03-06T01:47:54.226Z,29.33
2018-03-06T01:50:23.936Z,29.37
2018-03-06T01:52:53.647Z,30.60
2018-03-06T01:55:23.355Z,35.30
2018-03-06T01:57:53.066Z,32.13
2018-03-06T02:00:22.774Z,32.67
2018-03-06T02:02:52.688Z,29.90
2018-03-06T02:05:22.408Z,29.90
2018-03-06T02:07:52.108Z,27.13
2018-03-06T02:10:21.821Z,32.70
2018-03-06T02:12:52.555Z,31.10
2018-03-06T02:15:22.464Z,34.67
2018-03-06T02:17:54.466Z,32.10
2018-03-06T02:20:24.548Z,28.00
2018-03-06T02:22:54.327Z,27.47
2018-03-06T02:25:24.173Z,31.43
2018-03-06T02:27:53.880Z,27.23
2018-03-06T02:30:23.592Z,29.97
2018-03-06T02:32:53.298Z,30.83
2018-03-06T02:35:23.214Z,30.07
2018-03-06T02:37:52.923Z,32.03
2018-03-06T02:40:22.589Z,31.30
2018-03-06T02:42:54.391Z,36.70
2018-03-06T02:45:25.449Z,35.90
2018-03-06T02:47:55.243Z,32.73
2018-03-06T02:50:24.952Z,34.00
2018-03-06T02:52:56.002Z,37.67
2018-03-06T02:55:26.624Z,35.90
2018-03-06T02:57:56.896Z,33.27
2018-03-06T03:00:26.657Z,37.33
2018-03-06T03:02:56.366Z,35.13
2018-03-06T03:05:26.781Z,39.87
2018-03-06T03:07:57.220Z,40.63
2018-03-06T03:10:26.931Z,38.33
2018-03-06T03:12:56.639Z,41.20
2018-03-06T03:15:27.372Z,39.43
2018-03-06T03:17:57.287Z,41.87
2018-03-06T03:20:26.999Z,37.17
2018-03-06T03:22:56.706Z,45.13
2018-03-06T03:25:26.416Z,42.40
2018-03-06T03:27:56.126Z,42.47
2018-03-06T03:30:25.840Z,40.03
2018-03-06T03:32:55.544Z,40.93
2018-03-06T03:35:25.256Z,46.10
2018-03-06T03:37:54.965Z,44.10
2018-03-06T03:40:24.675Z,44.53
2018-03-06T03:42:54.596Z,43.47
2018-03-06T03:45:24.296Z,49.00
2018-03-06T03:47:54.008Z,42.93
2018-03-06T03:50:23.920Z,44.13
2018-03-06T03:52:53.631Z,52.23
2018-03-06T03:55:23.545Z,50.33
2018-03-06T03:57:53.255Z,49.83
2018-03-06T04:00:22.964Z,46.60
2018-03-06T04:02:52.674Z,42.30
2018-03-06T04:05:22.588Z,44.47
2018-03-06T04:07:52.501Z,44.57
2018-03-06T04:10:22.212Z,47.00
2018-03-06T04:12:52.126Z,46.07
2018-03-06T04:15:22.041Z,45.17
2018-03-06T04:17:51.751Z,49.13
2018-03-06T04:20:21.664Z,47.47
2018-03-06T04:22:51.578Z,48.67
2018-03-06T04:25:21.289Z,48.80
2018-03-06T04:27:50.997Z,48.23
2018-03-06T04:30:21.872Z,43.23
2018-03-06T04:32:51.913Z,43.27
2018-03-06T04:35:21.767Z,51.57
2018-03-06T04:37:52.502Z,52.23
2018-03-06T04:40:22.209Z,55.37
2018-03-06T04:42:52.736Z,49.93
2018-03-06T04:45:22.654Z,49.83
2018-03-06T04:47:52.978Z,49.20
2018-03-06T04:50:22.684Z,52.00
2018-03-06T04:52:52.395Z,48.97
2018-03-06T04:55:22.109Z,47.63
2018-03-06T04:57:52.018Z,54.87
2018-03-06T05:00:22.342Z,50.33
2018-03-06T05:02:52.461Z,51.37
2018-03-06T05:05:22.180Z,50.50
2018-03-06T05:07:52.085Z,53.07
2018-03-06T05:10:22.818Z,51.50
2018-03-06T05:12:52.732Z,46.87
2018-03-06T05:15:22.447Z,55.67
2018-03-06T05:17:52.152Z,49.53
2018-03-06T05:20:23.295Z,52.93
2018-03-06T05:22:53.005Z,61.40
2018-03-06T05:25:22.714Z,50.80
2018-03-06T05:27:52.427Z,55.77
2018-03-06T05:30:22.343Z,53.10
2018-03-06T05:32:52.052Z,58.03
2018-03-06T05:35:21.716Z,55.23
2018-03-06T05:37:51.626Z,55.03
2018-03-06T05:40:21.384Z,50.17
2018-03-06T05:42:51.324Z,53.47
2018-03-06T05:45:21.422Z,52.57
2018-03-06T05:47:51.534Z,53.97
2018-03-06T05:50:21.450Z,54.23
2018-03-06T05:52:51.160Z,53.43
2018-03-06T05:55:21.891Z,55.20
2018-03-06T05:57:52.421Z,52.57
2018-03-06T06:00:22.540Z,53.77
2018-03-06T06:02:53.076Z,56.13
2018-03-06T06:05:22.787Z,60.33
2018-03-06T06:07:53.512Z,52.70
2018-03-06T06:10:23.220Z,61.93
2018-03-06T06:12:52.930Z,57.13
2018-03-06T06:15:22.845Z,49.77
2018-03-06T06:17:52.758Z,55.03
2018-03-06T06:20:22.674Z,65.30
2018-03-06T06:22:52.382Z,71.17
2018-03-06T06:25:22.098Z,66.03
2018-03-06T06:27:53.032Z,67.90
2018-03-06T06:30:22.740Z,77.17
2018-03-06T06:32:54.089Z,83.17
2018-03-06T06:35:25.436Z,77.53
2018-03-06T06:37:55.558Z,79.17
2018-03-06T06:40:25.267Z,80.30
2018-03-06T06:42:55.999Z,71.57
2018-03-06T06:45:25.710Z,75.30
2018-03-06T06:47:55.978Z,73.00
2018-03-06T06:50:25.711Z,81.57
2018-03-06T06:52:55.450Z,75.60
2018-03-06T06:55:25.316Z,73.60
2018-03-06T06:57:55.074Z,71.03
2018-03-06T07:00:25.197Z,74.87
2018-03-06T07:02:55.108Z,70.70
2018-03-06T07:05:25.230Z,72.43
2018-03-06T07:07:55.438Z,70.90
2018-03-06T07:10:25.419Z,73.23
2018-03-06T07:12:55.380Z,69.07
2018-03-06T07:15:25.040Z,74.23
2018-03-06T07:17:54.798Z,75.43
2018-03-06T07:20:26.147Z,77.23
2018-03-06T07:22:56.063Z,66.23
2018-03-06T07:25:25.775Z,78.00
2018-03-06T07:27:55.480Z,69.23
2018-03-06T07:30:26.829Z,74.73
2018-03-06T07:32:56.743Z,63.17
2018-03-06T07:35:26.452Z,62.37
2018-03-06T07:37:56.854Z,64.47
2018-03-06T07:40:26.691Z,68.07
2018-03-06T07:42:56.400Z,65.10
2018-03-06T07:45:26.110Z,69.63
2018-03-06T07:47:57.458Z,65.30
2018-03-06T07:50:28.810Z,59.83
2018-03-06T07:52:58.515Z,62.23
2018-03-06T07:55:28.225Z,60.40
2018-03-06T07:57:59.778Z,70.47
2018-03-06T08:00:29.707Z,70.93
2018-03-06T08:02:59.557Z,63.27
2018-03-06T08:05:29.385Z,72.00
2018-03-06T08:07:59.233Z,69.53
2018-03-06T08:10:28.947Z,64.00
2018-03-06T08:12:58.650Z,69.03
2018-03-06T08:15:30.045Z,66.77
2018-03-06T08:17:59.674Z,74.00
2018-03-06T08:20:29.417Z,65.30
2018-03-06T08:22:59.126Z,64.67
2018-03-06T08:25:29.404Z,62.50
2018-03-06T08:27:59.165Z,65.57
2018-03-06T08:30:29.701Z,65.40
2018-03-06T08:32:59.410Z,69.63
2018-03-06T08:35:29.926Z,58.70
2018-03-06T08:38:00.659Z,71.17
2018-03-06T08:40:30.369Z,65.80
2018-03-06T08:43:00.694Z,65.33
2018-03-06T08:45:30.405Z,64.13
2018-03-06T08:48:00.281Z,61.10
2018-03-06T08:50:30.232Z,69.70
2018-03-06T08:53:00.103Z,58.80
2018-03-06T08:55:30.061Z,68.63
2018-03-06T08:57:59.981Z,64.03
2018-03-06T09:00:29.897Z,70.60
2018-03-06T09:02:59.598Z,67.43
2018-03-06T09:05:29.309Z,73.07
2018-03-06T09:07:59.223Z,68.60
2018-03-06T09:10:28.932Z,64.33
2018-03-06T09:12:58.645Z,79.63
2018-03-06T09:15:28.560Z,73.67
2018-03-06T09:17:59.907Z,69.43
2018-03-06T09:20:29.860Z,66.17
2018-03-06T09:23:07.569Z,73.77
2018-03-06T09:25:38.047Z,77.70
2018-03-06T09:28:12.261Z,69.83
2018-03-06T09:30:42.181Z,66.00
2018-03-06T09:33:11.883Z,65.37
2018-03-06T09:35:42.414Z,67.93
2018-03-06T09:38:12.129Z,65.93
2018-03-06T09:40:42.652Z,71.13
2018-03-06T09:43:12.564Z,69.60
2018-03-06T09:45:43.511Z,71.80
2018-03-06T09:48:13.216Z,76.20
2018-03-06T09:50:43.107Z,68.83
2018-03-06T09:53:12.835Z,72.63
2018-03-06T09:55:42.546Z,75.53
2018-03-06T09:58:12.258Z,72.03
2018-03-06T10:00:42.384Z,76.90
2018-03-06T10:03:13.725Z,82.40
2018-03-06T10:05:52.770Z,83.23
2018-03-06T10:08:23.999Z,80.57
2018-03-06T10:10:53.708Z,82.23
2018-03-06T10:13:23.415Z,79.27
2018-03-06T10:15:54.764Z,80.87
2018-03-06T10:18:24.678Z,80.60
2018-03-06T10:20:54.593Z,77.03
2018-03-06T10:23:24.302Z,89.97
2018-03-06T10:25:54.830Z,80.60
2018-03-06T10:28:24.540Z,84.73
2018-03-06T10:30:55.074Z,92.67
2018-03-06T10:33:24.906Z,83.23
2018-03-06T10:35:55.512Z,84.60
2018-03-06T10:38:25.222Z,89.80
2018-03-06T10:40:56.721Z,85.60
2018-03-06T10:43:26.483Z,85.80
2018-03-06T10:45:56.194Z,102.47
2018-03-06T10:48:26.053Z,101.77
2018-03-06T10:50:55.819Z,94.80
2018-03-06T10:53:25.678Z,90.00
2018-03-06T10:55:55.443Z,98.10
2018-03-06T10:58:25.115Z,95.63
2018-03-06T11:00:55.073Z,99.63
2018-03-06T11:03:24.985Z,103.40
2018-03-06T11:05:54.689Z,107.23
2018-03-06T11:08:24.609Z,107.30
2018-03-06T11:10:54.314Z,104.03
2018-03-06T11:13:24.030Z,98.10
2018-03-06T11:15:53.734Z,103.83
2018-03-06T11:18:23.458Z,110.13
2018-03-06T11:20:53.529Z,96.97
2018-03-06T11:23:23.274Z,97.03
2018-03-06T11:25:52.980Z,105.63
2018-03-06T11:28:22.695Z,122.97
2018-03-06T11:30:52.403Z,105.13
2018-03-06T11:33:22.110Z,112.63
2018-03-06T11:35:52.845Z,101.67
2018-03-06T11:38:22.552Z,98.43
2018-03-06T11:40:52.673Z,107.67
2018-03-06T11:43:24.024Z,121.40
2018-03-06T11:45:53.995Z,117.03
2018-03-06T11:48:23.648Z,106.37
2018-03-06T11:50:53.357Z,108.00
2018-03-06T11:53:23.063Z,113.93
2018-03-06T11:55:52.978Z,117.20
2018-03-06T11:58:22.687Z,115.60
2018-03-06T12:00:52.620Z,107.07
2018-03-06T12:03:22.519Z,113.10
2018-03-06T12:05:52.431Z,105.27
2018-03-06T12:08:22.142Z,113.43
2018-03-06T12:10:51.849Z,108.07
2018-03-06T12:13:21.560Z,123.80
2018-03-06T12:15:51.271Z,112.97
2018-03-06T12:18:21.183Z,110.83
2018-03-06T12:20:52.122Z,106.80
2018-03-06T12:23:21.831Z,121.43
2018-03-06T12:25:51.543Z,100.33
2018-03-06T12:28:21.250Z,120.27
2018-03-06T12:30:52.598Z,114.67
2018-03-06T12:33:22.255Z,133.17
2018-03-06T12:35:52.018Z,124.57
2018-03-06T12:38:21.735Z,123.17
2018-03-06T12:40:51.645Z,127.30
2018-03-06T12:43:21.555Z,120.60
2018-03-06T12:45:51.470Z,124.63
2018-03-06T12:48:21.180Z,113.73
2018-03-06T12:50:50.889Z,111.53
2018-03-06T12:53:21.010Z,114.70
2018-03-06T12:55:51.073Z,131.40
2018-03-06T12:58:20.842Z,123.97
2018-03-06T13:00:50.753Z,125.37
2018-03-06T13:03:20.412Z,121.73
2018-03-06T13:05:50.377Z,131.97
2018-03-06T13:08:21.738Z,125.10
2018-03-06T13:10:51.569Z,124.33
2018-03-06T13:13:22.126Z,128.53
2018-03-06T13:15:52.082Z,133.03
2018-03-06T13:18:21.997Z,140.43
2018-03-06T13:20:51.715Z,123.80
2018-03-06T13:23:21.625Z,123.90
2018-03-06T13:25:51.331Z,131.00
2018-03-06T13:28:22.682Z,143.57
2018-03-06T13:30:52.592Z,144.13
2018-03-06T13:33:22.445Z,141.97
2018-03-06T13:35:52.219Z,131.37
2018-03-06T13:38:21.929Z,127.20
2018-03-06T13:40:51.636Z,127.13
2018-03-06T13:43:21.959Z,128.03
2018-03-06T13:45:51.885Z,138.77
2018-03-06T13:48:21.994Z,133.97
2018-03-06T13:50:53.285Z,137.47
2018-03-06T13:53:23.468Z,145.80
2018-03-06T13:55:53.172Z,139.10
2018-03-06T13:58:22.880Z,138.83
2018-03-06T14:00:52.591Z,135.53
2018-03-06T14:03:22.309Z,138.37
2018-03-06T14:05:52.829Z,139.77
2018-03-06T14:08:24.130Z,146.03
2018-03-06T14:10:53.886Z,143.83
2018-03-06T14:13:23.599Z,151.80
2018-03-06T14:15:53.307Z,142.37
2018-03-06T14:18:24.653Z,149.53
2018-03-06T14:20:54.369Z,141.80
2018-03-06T14:23:24.073Z,138.93
2018-03-06T14:25:53.996Z,147.97
2018-03-06T14:28:23.903Z,151.53
2018-03-06T14:30:53.613Z,143.63
2018-03-06T14:33:23.324Z,140.43
2018-03-06T14:35:54.879Z,139.80
2018-03-06T14:38:26.019Z,152.67
2018-03-06T14:40:55.735Z,159.33
2018-03-06T14:43:25.438Z,139.93
2018-03-06T14:45:56.785Z,153.93
2018-03-06T14:48:28.132Z,143.03
2018-03-06T14:50:58.163Z,136.83
2018-03-06T14:53:28.078Z,141.57
2018-03-06T14:55:57.786Z,157.57
2018-03-06T14:58:27.907Z,143.87
2018-03-06T15:00:57.821Z,145.97
2018-03-06T15:03:27.735Z,144.33
2018-03-06T15:05:57.657Z,141.67
2018-03-06T15:08:27.572Z,153.63
2018-03-06T15:10:59.125Z,155.33
2018-03-06T15:13:29.031Z,142.40
2018-03-06T15:15:59.561Z,158.20
2018-03-06T15:18:29.474Z,154.33
2018-03-06T15:20:59.542Z,143.30
2018-03-06T15:23:30.127Z,135.40
2018-03-06T15:26:00.743Z,148.43
2018-03-06T15:28:30.771Z,142.40
2018-03-06T15:31:01.245Z,142.27
2018-03-06T15:33:31.013Z,141.00
2018-03-06T15:36:00.723Z,141.23
2018-03-06T15:38:31.250Z,157.90
2018-03-06T15:41:02.006Z,147.87
2018-03-06T15:43:32.314Z,156.53
2018-03-06T15:46:02.026Z,154.70
2018-03-06T15:48:32.549Z,152.23
2018-03-06T15:51:02.267Z,156.40
2018-03-06T15:53:32.179Z,142.43
2018-03-06T15:56:02.109Z,160.07
2018-03-06T15:58:32.192Z,217.80
2018-03-06T16:01:02.536Z,336.53
2018-03-06T16:03:32.449Z,316.17
2018-03-06T16:06:02.571Z,276.23
2018-03-06T16:08:32.691Z,242.77
2018-03-06T16:11:02.603Z,248.87
2018-03-06T16:13:33.341Z,222.30
2018-03-06T16:16:03.248Z,223.40
2018-03-06T16:18:34.804Z,213.43
2018-03-06T16:21:04.920Z,182.47
2018-03-06T16:23:35.039Z,209.47
2018-03-06T16:26:05.778Z,198.63
2018-03-06T16:28:35.691Z,174.23
2018-03-06T16:31:06.186Z,188.60
2018-03-06T16:33:35.926Z,193.53
2018-03-06T16:36:06.251Z,176.83
2018-03-06T16:38:36.166Z,176.90
2018-03-06T16:41:06.489Z,183.17
2018-03-06T16:43:36.406Z,183.40
2018-03-06T16:46:06.325Z,173.43
2018-03-06T16:48:36.642Z,181.23
2018-03-06T16:51:06.940Z,181.90
2018-03-06T16:53:37.291Z,200.67
2018-03-06T16:56:07.038Z,182.17
2018-03-06T16:58:37.327Z,184.53
2018-03-06T17:01:08.870Z,175.93
2018-03-06T17:03:38.793Z,179.47
2018-03-06T17:06:09.322Z,190.47
2018-03-06T17:08:39.735Z,186.47
2018-03-06T17:11:09.722Z,183.77
2018-03-06T17:13:39.676Z,186.70
2018-03-06T17:16:09.913Z,194.83
2018-03-06T17:18:39.915Z,192.63
2018-03-06T17:21:10.038Z,201.87
2018-03-06T17:23:40.769Z,202.97
2018-03-06T17:26:10.887Z,202.47
2018-03-06T17:28:40.978Z,195.83
2018-03-06T17:31:10.908Z,204.40
2018-03-06T17:33:40.835Z,186.27
2018-03-06T17:36:10.749Z,199.70
2018-03-06T17:38:40.868Z,220.33
2018-03-06T17:41:10.782Z,198.27
2018-03-06T17:43:40.968Z,206.33
2018-03-06T17:46:12.250Z,219.37
2018-03-06T17:48:42.480Z,193.43
2018-03-06T17:51:13.266Z,193.27
2018-03-06T17:53:43.415Z,190.07
2018-03-06T17:56:13.186Z,196.43
2018-03-06T17:58:43.466Z,211.03
2018-03-06T18:01:15.218Z,209.13
2018-03-06T18:03:45.046Z,215.27
2018-03-06T18:06:15.661Z,199.37
2018-03-06T18:08:45.583Z,216.60
2018-03-06T18:11:15.702Z,214.20
2018-03-06T18:13:47.042Z,204.37
2018-03-06T18:16:18.596Z,206.97
2018-03-06T18:18:49.125Z,209.27
2018-03-06T18:21:19.350Z,204.33
2018-03-06T18:23:49.364Z,212.57
2018-03-06T18:26:20.900Z,205.73
2018-03-06T18:28:50.987Z,192.67
2018-03-06T18:31:20.856Z,188.70
2018-03-06T18:33:51.698Z,203.47
2018-03-06T18:36:21.612Z,198.67
2018-03-06T18:38:52.324Z,206.53
2018-03-06T18:41:22.256Z,197.27
2018-03-06T18:43:53.389Z,208.07
2018-03-06T18:46:26.159Z,188.33
2018-03-06T18:48:57.734Z,189.67
2018-03-06T18:51:27.809Z,194.17
2018-03-06T18:53:57.963Z,206.97
2018-03-06T18:56:28.069Z,201.17
2018-03-06T18:58:58.199Z,195.30
2018-03-06T19:02:36.517Z,200.10
2018-03-06T19:05:17.295Z,204.87
2018-03-06T19:07:47.590Z,198.83
2018-03-06T19:10:17.712Z,192.30
2018-03-06T19:12:47.849Z,192.20
2018-03-06T19:15:17.766Z,191.50
2018-03-06T19:17:47.861Z,188.87
2018-03-06T19:20:18.622Z,186.87
2018-03-06T19:22:49.312Z,191.23
2018-03-06T19:25:19.447Z,199.90
2018-03-06T19:27:49.795Z,198.37
2018-03-06T19:30:21.353Z,199.20
2018-03-06T19:32:52.898Z,177.13
2018-03-06T19:35:23.438Z,177.10
2018-03-06T19:37:53.503Z,201.57
2018-03-06T19:40:23.670Z,176.57
2018-03-06T19:42:53.906Z,185.40
2018-03-06T19:45:24.839Z,184.13
2018-03-06T19:47:55.659Z,178.20
2018-03-06T19:50:28.197Z,187.83
2018-03-06T19:52:58.655Z,179.40
2018-03-06T19:55:28.647Z,166.83
2018-03-06T19:57:59.321Z,181.87
2018-03-06T20:00:29.617Z,180.90
2018-03-06T20:03:01.288Z,168.37
2018-03-06T20:05:32.919Z,174.17
2018-03-06T20:08:05.837Z,170.00
2018-03-06T20:10:35.725Z,179.73
2018-03-06T20:13:06.441Z,174.30
2018-03-06T20:15:36.664Z,186.27
2018-03-06T20:18:07.737Z,172.77
2018-03-06T20:20:37.655Z,160.37
2018-03-06T20:23:07.576Z,167.60
2018-03-06T20:26:14.352Z,164.37
2018-03-06T20:28:45.906Z,172.03
2018-03-06T20:33:26.068Z,171.27
2018-03-06T20:35:56.656Z,184.20
2018-03-06T20:38:33.068Z,173.93
2018-03-06T20:41:04.189Z,199.93
2018-03-06T20:43:35.359Z,168.73
2018-03-06T20:46:11.639Z,173.00
2018-03-06T20:48:43.567Z,174.80
2018-03-06T20:51:14.673Z,186.27
2018-03-06T20:56:00.622Z,190.37
2018-03-06T20:58:34.317Z,177.40
2018-03-06T21:01:07.210Z,184.63
2018-03-06T21:03:38.160Z,182.10
2018-03-06T21:06:10.365Z,173.87
2018-03-06T21:08:40.635Z,182.40
2018-03-06T21:11:12.819Z,184.87
2018-03-06T21:13:46.192Z,173.27
2018-03-06T21:16:16.899Z,169.43
2018-03-06T21:18:47.130Z,177.30
2018-03-06T21:21:17.091Z,183.83
2018-03-06T21:23:47.858Z,188.57
2018-03-06T21:26:17.984Z,174.17
2018-03-06T21:28:48.962Z,183.00
2018-03-06T21:31:18.878Z,182.13
2018-03-06T21:33:48.981Z,188.93
2018-03-06T21:36:19.119Z,170.70
2018-03-06T21:38:49.167Z,176.70
2018-03-06T21:41:19.149Z,171.13
2018-03-06T21:43:49.063Z,188.83
2018-03-06T21:46:18.779Z,183.20
2018-03-06T21:48:48.640Z,176.40
2018-03-06T21:51:18.402Z,175.87
2018-03-06T21:53:49.346Z,206.00
2018-03-06T21:56:19.329Z,190.03
2018-03-06T21:58:49.168Z,182.13
2018-03-06T22:01:18.890Z,182.10
2018-03-06T22:03:49.103Z,191.03
2018-03-06T22:06:18.990Z,196.47
2018-03-06T22:08:49.196Z,188.37
2018-03-06T22:11:18.943Z,184.37
2018-03-06T22:13:49.678Z,190.40
2018-03-06T22:16:19.589Z,169.83
2018-03-06T22:18:51.830Z,187.70
2018-03-06T22:21:21.877Z,191.10
2018-03-06T22:23:51.791Z,188.17
2018-03-06T22:26:21.914Z,189.23
2018-03-06T22:28:51.785Z,177.17
2018-03-06T22:31:21.737Z,198.97
2018-03-06T22:33:53.166Z,185.40
2018-03-06T22:36:23.178Z,195.53
2018-03-06T22:38:53.759Z,195.87
2018-03-06T22:41:23.648Z,206.43
2018-03-06T22:43:53.358Z,199.23
2018-03-06T22:46:23.216Z,201.77
2018-03-06T22:48:52.937Z,188.40
2018-03-06T22:51:22.692Z,187.00
2018-03-06T22:53:52.419Z,200.50
2018-03-06T22:56:22.930Z,198.47
2018-03-06T22:58:52.639Z,219.80
2018-03-06T23:01:22.353Z,191.30
2018-03-06T23:03:53.083Z,204.33
2018-03-06T23:06:22.792Z,190.10
2018-03-06T23:08:52.713Z,190.90
2018-03-06T23:11:24.259Z,211.70
2018-03-06T23:13:57.750Z,206.20
2018-03-06T23:16:27.570Z,189.70
2018-03-06T23:18:57.281Z,206.17
2018-03-06T23:21:28.012Z,199.83
2018-03-06T23:23:57.722Z,208.83
2018-03-06T23:26:29.226Z,202.83
2018-03-06T23:28:58.987Z,199.70
2018-03-06T23:31:29.105Z,217.67
2018-03-06T23:33:58.813Z,207.33
2018-03-06T23:36:29.485Z,198.80
2018-03-06T23:38:59.258Z,216.57
2018-03-06T23:41:29.172Z,196.63
2018-03-06T23:43:59.699Z,231.20
2018-03-06T23:46:30.023Z,225.57
2018-03-06T23:48:59.946Z,211.63
2018-03-06T23:51:29.852Z,196.27
2018-03-06T23:54:00.998Z,208.37
2018-03-06T23:56:31.934Z,228.20
2018-03-06T23:59:04.110Z,216.17
